Nampa, ID

6:59 AM MDT on September 16, 2014 (GMT -0600)
Nampa | Change Station
CLOSE
Current Station
Airport
Location: Nampa,
Elevation: 2536 ft
Nearby Weather Stations

Elev 2536 ft 43.58 °N, 116.52 °W | Updated 24 minutes ago

Overcast
Overcast
70 °F
Feels Like 70 °F
N
10
Wind Variable Wind from East

Today
High -- | Low -- °F
--% Chance of Precip.
Yesterday
High -- | Low -- °F
Precip. -- in
7:26 AM 7:54 PM
Last Quarter, 46% visible
Pressure 29.93 in
Visibility 10.0 miles
Clouds Few 2700 ft
Mostly Cloudy 6000 ft
Overcast 11000 ft
Dew Point 50 °F
Humidity 49%
Rainfall 0.00 in
Snow Depth 0 in , 1 in , 2 in
UV 0 out of 12
Pollen 7.70 out of 12
PM2.5 Moderate
Flu Activity Not available.
METAR KMAN 161235Z AUTO 08009KT 10SM FEW027 BKN060 OVC110 21/10 A2993 RMK AO1

More Conditions Fewer Conditions

Pressure 29.93 in
Visibility 10.0 miles
Clouds Few 2700 ft
Mostly Cloudy 6000 ft
Overcast 11000 ft
Dew Point 50 °F
Humidity 49%
Rainfall 0.00 in
Snow Depth 0 in , 1 in , 2 in
UV 0 out of 12
Pollen 7.70 out of 12
PM2.5 Moderate
Flu Activity Not available.
METAR KMAN 161235Z AUTO 08009KT 10SM FEW027 BKN060 OVC110 21/10 A2993 RMK AO1

More Conditions Fewer Conditions

10-Day Weather Forecast

Almanac

Astronomy

Sep. 16, 2014 Rise Set
Actual Time 7:26 AM MDT 7:54 PM MDT
Civil Twilight 6:57 AM MDT 8:22 PM MDT
Nautical Twilight 6:23 AM MDT 8:56 PM MDT
Astronomical Twilight 5:48 AM MDT 9:31 PM MDT
Moon 12:32 AM MDT 3:29 PM MDT
Length of Visible Light 13h 25m
Length of Day
12h 27m
Tomorrow will be 2m 57s shorter.
Last Quarter, 46% of the Moon is Illuminated
Today
Last Quarter
Sep 24
New
Oct 1
First Quarter
Oct 8
Full
Oct 15
Last Quarter

Today's Extremes

State Highs State Lows

Community

WunderPhotos

Upload Photos

1,753,756 photos uploaded!

Nearby

Air Quality

  Air Quality AQ Index Pollutant
Yesterday Good
PM10
Yesterday Good
OZONE
Current Moderate
PM2.5
Tuesday Moderate
PM2.5
Tuesday Good
OZONE
Wednesday Moderate
PM2.5
Wednesday Good
OZONE

Snow Depth

Station Depth Elevation
Bear Canyon 0 in 7900 ft
Lost-Wood Divide 1 in 7900 ft
Smiley Mountain 2 in 9520 ft
Trinity Mountain 1 in 7770 ft
Sherwin 0 in 3200 ft

Earthquake Activity

City Distance Mag. Time & Date
No recent earthquake activity has been reported nearby.
Minimum magnitude displayed is 2.5.

Coastal Water Temperatures

Place Temperature
No Stations Reporting

Nearby Weather Stations